sensor_id;sensor_type;location;lat;lon;timestamp;temperature;humidity
72762;SHT30;60886;55.034;73.150;2022-12-08T00:01:31;-20.31;72.46
72762;SHT30;60886;55.034;73.150;2022-12-08T00:03:58;-20.23;72.43
72762;SHT30;60886;55.034;73.150;2022-12-08T00:06:41;-20.16;72.07
72762;SHT30;60886;55.034;73.150;2022-12-08T00:09:37;-20.13;71.96
72762;SHT30;60886;55.034;73.150;2022-12-08T00:12:20;-20.14;71.64
72762;SHT30;60886;55.034;73.150;2022-12-08T00:14:49;-20.09;71.91
72762;SHT30;60886;55.034;73.150;2022-12-08T00:17:16;-20.03;71.92
72762;SHT30;60886;55.034;73.150;2022-12-08T00:19:43;-19.99;71.56
72762;SHT30;60886;55.034;73.150;2022-12-08T00:22:11;-20.02;71.25
72762;SHT30;60886;55.034;73.150;2022-12-08T00:24:42;-20.02;71.35
72762;SHT30;60886;55.034;73.150;2022-12-08T00:27:11;-20.05;71.23
72762;SHT30;60886;55.034;73.150;2022-12-08T00:29:39;-20.12;71.19
72762;SHT30;60886;55.034;73.150;2022-12-08T00:32:06;-20.13;71.24
72762;SHT30;60886;55.034;73.150;2022-12-08T00:34:33;-20.20;71.45
72762;SHT30;60886;55.034;73.150;2022-12-08T00:37:18;-20.13;71.73
72762;SHT30;60886;55.034;73.150;2022-12-08T00:40:57;-20.27;71.39
72762;SHT30;60886;55.034;73.150;2022-12-08T00:43:33;-20.26;71.89
72762;SHT30;60886;55.034;73.150;2022-12-08T00:46:11;-20.20;71.84
72762;SHT30;60886;55.034;73.150;2022-12-08T00:48:38;-20.18;71.84
72762;SHT30;60886;55.034;73.150;2022-12-08T00:51:11;-20.27;71.55
72762;SHT30;60886;55.034;73.150;2022-12-08T00:53:42;-20.31;71.65
72762;SHT30;60886;55.034;73.150;2022-12-08T00:56:09;-20.26;72.04
72762;SHT30;60886;55.034;73.150;2022-12-08T00:58:35;-20.23;72.04
72762;SHT30;60886;55.034;73.150;2022-12-08T01:01:10;-20.23;71.87
72762;SHT30;60886;55.034;73.150;2022-12-08T01:03:36;-20.27;71.72
72762;SHT30;60886;55.034;73.150;2022-12-08T01:06:13;-20.20;71.58
72762;SHT30;60886;55.034;73.150;2022-12-08T01:08:49;-20.26;71.51
72762;SHT30;60886;55.034;73.150;2022-12-08T01:11:18;-20.33;71.45
72762;SHT30;60886;55.034;73.150;2022-12-08T01:13:46;-20.40;71.73
72762;SHT30;60886;55.034;73.150;2022-12-08T01:16:23;-20.38;72.03
72762;SHT30;60886;55.034;73.150;2022-12-08T01:18:50;-20.40;72.00
72762;SHT30;60886;55.034;73.150;2022-12-08T01:21:23;-20.40;71.73
72762;SHT30;60886;55.034;73.150;2022-12-08T01:23:51;-20.38;71.73
72762;SHT30;60886;55.034;73.150;2022-12-08T01:26:18;-20.41;71.55
72762;SHT30;60886;55.034;73.150;2022-12-08T01:28:49;-20.50;71.50
72762;SHT30;60886;55.034;73.150;2022-12-08T01:31:21;-20.52;71.47
72762;SHT30;60886;55.034;73.150;2022-12-08T01:33:48;-20.47;71.57
72762;SHT30;60886;55.034;73.150;2022-12-08T01:36:20;-20.51;71.27
72762;SHT30;60886;55.034;73.150;2022-12-08T01:38:47;-20.64;71.22
72762;SHT30;60886;55.034;73.150;2022-12-08T01:41:19;-20.71;71.77
72762;SHT30;60886;55.034;73.150;2022-12-08T01:43:59;-20.64;71.96
72762;SHT30;60886;55.034;73.150;2022-12-08T01:46:27;-20.68;71.91
72762;SHT30;60886;55.034;73.150;2022-12-08T01:49:11;-20.67;71.82
72762;SHT30;60886;55.034;73.150;2022-12-08T01:52:15;-20.71;71.97
72762;SHT30;60886;55.034;73.150;2022-12-08T01:55:11;-20.72;71.71
72762;SHT30;60886;55.034;73.150;2022-12-08T01:58:01;-20.76;71.61
72762;SHT30;60886;55.034;73.150;2022-12-08T02:00:29;-20.78;71.97
72762;SHT30;60886;55.034;73.150;2022-12-08T02:13:38;-20.78;71.58
72762;SHT30;60886;55.034;73.150;2022-12-08T02:16:35;-20.81;71.35
72762;SHT30;60886;55.034;73.150;2022-12-08T02:19:31;-20.75;71.24
72762;SHT30;60886;55.034;73.150;2022-12-08T02:22:09;-20.73;71.39
72762;SHT30;60886;55.034;73.150;2022-12-08T02:27:45;-20.93;71.17
72762;SHT30;60886;55.034;73.150;2022-12-08T02:30:25;-21.03;71.66
72762;SHT30;60886;55.034;73.150;2022-12-08T02:43:47;-20.88;71.22
72762;SHT30;60886;55.034;73.150;2022-12-08T02:49:17;-20.89;71.11
72762;SHT30;60886;55.034;73.150;2022-12-08T02:51:44;-20.88;71.13
72762;SHT30;60886;55.034;73.150;2022-12-08T02:54:10;-20.85;70.89
72762;SHT30;60886;55.034;73.150;2022-12-08T03:02:17;-20.93;70.95
72762;SHT30;60886;55.034;73.150;2022-12-08T03:04:55;-20.98;70.97
72762;SHT30;60886;55.034;73.150;2022-12-08T03:07:43;-21.00;71.10
72762;SHT30;60886;55.034;73.150;2022-12-08T03:10:33;-20.96;71.31
72762;SHT30;60886;55.034;73.150;2022-12-08T03:13:05;-21.02;71.24
72762;SHT30;60886;55.034;73.150;2022-12-08T03:15:36;-21.06;71.29
72762;SHT30;60886;55.034;73.150;2022-12-08T03:18:06;-21.09;71.29
72762;SHT30;60886;55.034;73.150;2022-12-08T03:20:33;-21.22;71.43
72762;SHT30;60886;55.034;73.150;2022-12-08T03:23:03;-21.19;71.84
72762;SHT30;60886;55.034;73.150;2022-12-08T03:25:47;-21.14;71.85
72762;SHT30;60886;55.034;73.150;2022-12-08T03:28:15;-21.24;71.65
72762;SHT30;60886;55.034;73.150;2022-12-08T03:30:46;-21.16;72.01
72762;SHT30;60886;55.034;73.150;2022-12-08T03:33:30;-21.06;72.07
72762;SHT30;60886;55.034;73.150;2022-12-08T03:35:58;-21.20;71.68
72762;SHT30;60886;55.034;73.150;2022-12-08T03:38:39;-21.20;72.27
72762;SHT30;60886;55.034;73.150;2022-12-08T03:41:16;-21.22;72.27
72762;SHT30;60886;55.034;73.150;2022-12-08T03:43:56;-21.22;72.46
72762;SHT30;60886;55.034;73.150;2022-12-08T03:46:36;-21.23;72.62
72762;SHT30;60886;55.034;73.150;2022-12-08T03:49:15;-21.16;72.86
72762;SHT30;60886;55.034;73.150;2022-12-08T03:51:41;-21.12;72.67
72762;SHT30;60886;55.034;73.150;2022-12-08T03:54:08;-21.05;72.84
72762;SHT30;60886;55.034;73.150;2022-12-08T03:56:37;-21.00;72.78
72762;SHT30;60886;55.034;73.150;2022-12-08T03:59:05;-21.03;72.84
72762;SHT30;60886;55.034;73.150;2022-12-08T04:01:31;-20.96;72.86
72762;SHT30;60886;55.034;73.150;2022-12-08T04:03:58;-20.98;72.50
72762;SHT30;60886;55.034;73.150;2022-12-08T04:06:26;-21.02;72.82
72762;SHT30;60886;55.034;73.150;2022-12-08T04:10:09;-20.95;72.70
72762;SHT30;60886;55.034;73.150;2022-12-08T04:12:36;-20.92;72.90
72762;SHT30;60886;55.034;73.150;2022-12-08T04:15:03;-20.93;72.86
72762;SHT30;60886;55.034;73.150;2022-12-08T04:17:29;-20.86;72.91
72762;SHT30;60886;55.034;73.150;2022-12-08T04:19:56;-20.72;73.01
72762;SHT30;60886;55.034;73.150;2022-12-08T04:22:23;-20.69;72.56
72762;SHT30;60886;55.034;73.150;2022-12-08T04:24:50;-20.68;72.37
72762;SHT30;60886;55.034;73.150;2022-12-08T04:27:17;-20.68;72.19
72762;SHT30;60886;55.034;73.150;2022-12-08T04:29:43;-20.55;72.52
72762;SHT30;60886;55.034;73.150;2022-12-08T04:32:19;-20.57;71.95
72762;SHT30;60886;55.034;73.150;2022-12-08T04:34:46;-20.52;71.67
72762;SHT30;60886;55.034;73.150;2022-12-08T04:37:12;-20.52;71.81
72762;SHT30;60886;55.034;73.150;2022-12-08T04:39:43;-20.59;71.73
72762;SHT30;60886;55.034;73.150;2022-12-08T04:42:09;-20.58;71.78
72762;SHT30;60886;55.034;73.150;2022-12-08T04:44:36;-20.59;71.81
72762;SHT30;60886;55.034;73.150;2022-12-08T04:47:02;-20.52;72.03
72762;SHT30;60886;55.034;73.150;2022-12-08T04:49:34;-20.55;71.77
72762;SHT30;60886;55.034;73.150;2022-12-08T04:52:05;-20.58;72.16
72762;SHT30;60886;55.034;73.150;2022-12-08T04:54:31;-20.52;72.13
72762;SHT30;60886;55.034;73.150;2022-12-08T04:56:58;-20.40;72.12
72762;SHT30;60886;55.034;73.150;2022-12-08T04:59:24;-20.40;71.62
72762;SHT30;60886;55.034;73.150;2022-12-08T05:01:50;-20.50;71.34
72762;SHT30;60886;55.034;73.150;2022-12-08T05:04:26;-20.42;71.86
72762;SHT30;60886;55.034;73.150;2022-12-08T05:06:53;-20.41;72.05
72762;SHT30;60886;55.034;73.150;2022-12-08T05:09:19;-20.33;72.11
72762;SHT30;60886;55.034;73.150;2022-12-08T05:11:45;-20.40;71.78
72762;SHT30;60886;55.034;73.150;2022-12-08T05:14:16;-20.31;72.38
72762;SHT30;60886;55.034;73.150;2022-12-08T05:16:44;-20.30;72.10
72762;SHT30;60886;55.034;73.150;2022-12-08T05:19:11;-20.20;72.20
72762;SHT30;60886;55.034;73.150;2022-12-08T05:21:37;-20.14;72.22
72762;SHT30;60886;55.034;73.150;2022-12-08T05:24:04;-20.14;71.89
72762;SHT30;60886;55.034;73.150;2022-12-08T05:26:30;-20.03;72.11
72762;SHT30;60886;55.034;73.150;2022-12-08T05:28:57;-19.99;71.77
72762;SHT30;60886;55.034;73.150;2022-12-08T05:31:23;-20.02;71.53
72762;SHT30;60886;55.034;73.150;2022-12-08T05:33:55;-19.97;71.76
72762;SHT30;60886;55.034;73.150;2022-12-08T05:36:22;-19.87;71.92
72762;SHT30;60886;55.034;73.150;2022-12-08T05:38:49;-19.89;71.59
72762;SHT30;60886;55.034;73.150;2022-12-08T05:41:17;-19.87;71.48
72762;SHT30;60886;55.034;73.150;2022-12-08T05:43:44;-19.81;71.38
72762;SHT30;60886;55.034;73.150;2022-12-08T05:46:11;-19.69;71.24
72762;SHT30;60886;55.034;73.150;2022-12-08T05:48:43;-19.63;71.13
72762;SHT30;60886;55.034;73.150;2022-12-08T05:51:20;-19.58;71.21
72762;SHT30;60886;55.034;73.150;2022-12-08T05:53:48;-19.52;71.53
72762;SHT30;60886;55.034;73.150;2022-12-08T05:56:15;-19.42;71.51
72762;SHT30;60886;55.034;73.150;2022-12-08T05:58:43;-19.31;71.62
72762;SHT30;60886;55.034;73.150;2022-12-08T06:03:51;-19.21;71.73
72762;SHT30;60886;55.034;73.150;2022-12-08T06:06:19;-19.14;72.11
72762;SHT30;60886;55.034;73.150;2022-12-08T06:08:46;-19.03;72.19
72762;SHT30;60886;55.034;73.150;2022-12-08T06:13:44;-18.87;71.41
72762;SHT30;60886;55.034;73.150;2022-12-08T06:16:11;-18.80;71.39
72762;SHT30;60886;55.034;73.150;2022-12-08T06:18:37;-18.75;71.71
72762;SHT30;60886;55.034;73.150;2022-12-08T06:21:05;-18.77;71.61
72762;SHT30;60886;55.034;73.150;2022-12-08T06:23:32;-18.80;71.68
72762;SHT30;60886;55.034;73.150;2022-12-08T06:26:06;-18.75;72.00
72762;SHT30;60886;55.034;73.150;2022-12-08T06:28:41;-18.63;71.91
72762;SHT30;60886;55.034;73.150;2022-12-08T06:31:16;-18.63;71.57
72762;SHT30;60886;55.034;73.150;2022-12-08T06:33:43;-18.67;71.52
72762;SHT30;60886;55.034;73.150;2022-12-08T06:36:12;-18.52;72.03
72762;SHT30;60886;55.034;73.150;2022-12-08T06:38:44;-18.43;71.77
72762;SHT30;60886;55.034;73.150;2022-12-08T06:41:11;-18.38;71.49
72762;SHT30;60886;55.034;73.150;2022-12-08T06:43:46;-18.33;71.59
72762;SHT30;60886;55.034;73.150;2022-12-08T06:46:22;-18.29;71.55
72762;SHT30;60886;55.034;73.150;2022-12-08T06:48:55;-18.31;71.19
72762;SHT30;60886;55.034;73.150;2022-12-08T06:51:22;-18.24;71.24
72762;SHT30;60886;55.034;73.150;2022-12-08T06:53:48;-18.18;71.21
72762;SHT30;60886;55.034;73.150;2022-12-08T06:56:21;-18.11;71.25
72762;SHT30;60886;55.034;73.150;2022-12-08T06:58:49;-18.10;71.07
72762;SHT30;60886;55.034;73.150;2022-12-08T07:01:15;-18.14;71.21
72762;SHT30;60886;55.034;73.150;2022-12-08T07:03:41;-18.11;71.16
72762;SHT30;60886;55.034;73.150;2022-12-08T07:06:15;-18.10;71.33
72762;SHT30;60886;55.034;73.150;2022-12-08T07:08:45;-18.11;70.99
72762;SHT30;60886;55.034;73.150;2022-12-08T07:11:18;-18.15;71.51
72762;SHT30;60886;55.034;73.150;2022-12-08T07:13:55;-18.26;71.50
72762;SHT30;60886;55.034;73.150;2022-12-08T07:16:31;-18.21;72.28
72762;SHT30;60886;55.034;73.150;2022-12-08T07:18:58;-18.12;71.87
72762;SHT30;60886;55.034;73.150;2022-12-08T07:21:25;-18.10;71.66
72762;SHT30;60886;55.034;73.150;2022-12-08T07:23:52;-17.98;71.78
72762;SHT30;60886;55.034;73.150;2022-12-08T07:26:24;-17.86;71.49
72762;SHT30;60886;55.034;73.150;2022-12-08T07:28:51;-17.88;71.33
72762;SHT30;60886;55.034;73.150;2022-12-08T07:31:26;-17.81;71.30
72762;SHT30;60886;55.034;73.150;2022-12-08T07:33:59;-17.71;71.08
72762;SHT30;60886;55.034;73.150;2022-12-08T07:36:32;-17.76;71.00
72762;SHT30;60886;55.034;73.150;2022-12-08T07:38:58;-17.67;71.29
72762;SHT30;60886;55.034;73.150;2022-12-08T07:41:29;-17.70;70.95
72762;SHT30;60886;55.034;73.150;2022-12-08T07:43:56;-17.66;71.29
72762;SHT30;60886;55.034;73.150;2022-12-08T07:46:33;-17.74;71.18
72762;SHT30;60886;55.034;73.150;2022-12-08T07:48:59;-17.78;71.35
72762;SHT30;60886;55.034;73.150;2022-12-08T07:51:27;-17.73;71.69
72762;SHT30;60886;55.034;73.150;2022-12-08T07:53:59;-17.70;71.44
72762;SHT30;60886;55.034;73.150;2022-12-08T07:56:25;-17.67;71.47
72762;SHT30;60886;55.034;73.150;2022-12-08T07:58:55;-17.63;71.45
72762;SHT30;60886;55.034;73.150;2022-12-08T08:01:28;-17.73;71.47
72762;SHT30;60886;55.034;73.150;2022-12-08T08:03:56;-17.66;72.21
72762;SHT30;60886;55.034;73.150;2022-12-08T08:06:23;-17.60;72.10
72762;SHT30;60886;55.034;73.150;2022-12-08T08:08:53;-17.50;72.05
72762;SHT30;60886;55.034;73.150;2022-12-08T08:11:20;-17.53;71.76
72762;SHT30;60886;55.034;73.150;2022-12-08T08:13:46;-17.49;71.87
72762;SHT30;60886;55.034;73.150;2022-12-08T08:16:18;-17.50;71.92
72762;SHT30;60886;55.034;73.150;2022-12-08T08:18:49;-17.52;72.07
72762;SHT30;60886;55.034;73.150;2022-12-08T08:21:27;-17.50;72.09
72762;SHT30;60886;55.034;73.150;2022-12-08T08:23:53;-17.46;72.11
72762;SHT30;60886;55.034;73.150;2022-12-08T08:26:19;-17.49;72.04
72762;SHT30;60886;55.034;73.150;2022-12-08T08:28:46;-17.46;72.24
72762;SHT30;60886;55.034;73.150;2022-12-08T08:31:13;-17.43;72.12
72762;SHT30;60886;55.034;73.150;2022-12-08T08:33:39;-17.46;72.41
72762;SHT30;60886;55.034;73.150;2022-12-08T08:36:07;-17.43;72.42
72762;SHT30;60886;55.034;73.150;2022-12-08T08:38:35;-17.35;72.08
72762;SHT30;60886;55.034;73.150;2022-12-08T08:41:06;-17.38;71.82
72762;SHT30;60886;55.034;73.150;2022-12-08T08:43:36;-17.45;71.93
72762;SHT30;60886;55.034;73.150;2022-12-08T08:46:04;-17.38;72.39
72762;SHT30;60886;55.034;73.150;2022-12-08T08:48:31;-17.32;72.26
72762;SHT30;60886;55.034;73.150;2022-12-08T08:50:58;-17.29;72.12
72762;SHT30;60886;55.034;73.150;2022-12-08T08:53:34;-17.26;71.91
72762;SHT30;60886;55.034;73.150;2022-12-08T08:56:01;-17.23;72.13
72762;SHT30;60886;55.034;73.150;2022-12-08T08:58:30;-17.23;72.05
72762;SHT30;60886;55.034;73.150;2022-12-08T09:00:57;-17.21;72.20
72762;SHT30;60886;55.034;73.150;2022-12-08T09:03:23;-17.22;72.24
72762;SHT30;60886;55.034;73.150;2022-12-08T09:05:51;-17.25;72.10
72762;SHT30;60886;55.034;73.150;2022-12-08T09:08:18;-17.26;72.02
72762;SHT30;60886;55.034;73.150;2022-12-08T09:10:45;-17.31;72.02
72762;SHT30;60886;55.034;73.150;2022-12-08T09:13:11;-17.36;72.32
72762;SHT30;60886;55.034;73.150;2022-12-08T09:15:41;-17.33;72.40
72762;SHT30;60886;55.034;73.150;2022-12-08T09:18:11;-17.35;72.19
72762;SHT30;60886;55.034;73.150;2022-12-08T09:20:37;-17.31;72.33
72762;SHT30;60886;55.034;73.150;2022-12-08T09:23:03;-17.29;72.07
72762;SHT30;60886;55.034;73.150;2022-12-08T09:25:30;-17.35;71.82
72762;SHT30;60886;55.034;73.150;2022-12-08T09:27:56;-17.36;71.89
72762;SHT30;60886;55.034;73.150;2022-12-08T09:30:24;-17.42;71.88
72762;SHT30;60886;55.034;73.150;2022-12-08T09:32:50;-17.49;72.24
72762;SHT30;60886;55.034;73.150;2022-12-08T09:35:17;-17.50;72.47
72762;SHT30;60886;55.034;73.150;2022-12-08T09:37:43;-17.50;72.49
72762;SHT30;60886;55.034;73.150;2022-12-08T09:40:15;-17.47;72.60
72762;SHT30;60886;55.034;73.150;2022-12-08T09:42:51;-17.46;72.25
72762;SHT30;60886;55.034;73.150;2022-12-08T09:45:20;-17.45;71.86
72762;SHT30;60886;55.034;73.150;2022-12-08T09:47:59;-17.47;71.92
72762;SHT30;60886;55.034;73.150;2022-12-08T09:50:39;-17.56;71.83
72762;SHT30;60886;55.034;73.150;2022-12-08T09:53:15;-17.56;71.83
72762;SHT30;60886;55.034;73.150;2022-12-08T09:56:00;-17.69;71.73
72762;SHT30;60886;55.034;73.150;2022-12-08T09:58:30;-17.80;72.08
72762;SHT30;60886;55.034;73.150;2022-12-08T10:00:57;-17.86;72.40
72762;SHT30;60886;55.034;73.150;2022-12-08T10:03:28;-17.90;72.39
72762;SHT30;60886;55.034;73.150;2022-12-08T10:17:19;-18.02;72.67
72762;SHT30;60886;55.034;73.150;2022-12-08T10:20:11;-18.11;72.41
72762;SHT30;60886;55.034;73.150;2022-12-08T10:22:56;-18.14;72.73
72762;SHT30;60886;55.034;73.150;2022-12-08T10:25:33;-18.14;72.58
72762;SHT30;60886;55.034;73.150;2022-12-08T10:28:07;-18.18;72.33
72762;SHT30;60886;55.034;73.150;2022-12-08T10:30:44;-18.29;72.38
72762;SHT30;60886;55.034;73.150;2022-12-08T10:33:19;-18.29;72.80
72762;SHT30;60886;55.034;73.150;2022-12-08T10:35:53;-18.35;72.74
72762;SHT30;60886;55.034;73.150;2022-12-08T10:38:31;-18.35;72.65
72762;SHT30;60886;55.034;73.150;2022-12-08T10:43:37;-18.52;72.89
72762;SHT30;60886;55.034;73.150;2022-12-08T10:46:34;-18.52;72.96
72762;SHT30;60886;55.034;73.150;2022-12-08T10:53:58;-18.57;72.95
72762;SHT30;60886;55.034;73.150;2022-12-08T10:56:27;-18.63;72.63
72762;SHT30;60886;55.034;73.150;2022-12-08T10:59:17;-18.65;72.81
72762;SHT30;60886;55.034;73.150;2022-12-08T11:01:49;-18.63;72.57
72762;SHT30;60886;55.034;73.150;2022-12-08T11:04:21;-18.73;72.17
72762;SHT30;60886;55.034;73.150;2022-12-08T11:06:50;-18.79;72.12
72762;SHT30;60886;55.034;73.150;2022-12-08T11:11:51;-18.93;71.92
72762;SHT30;60886;55.034;73.150;2022-12-08T11:14:31;-18.96;72.23
72762;SHT30;60886;55.034;73.150;2022-12-08T11:17:07;-19.06;72.17
72762;SHT30;60886;55.034;73.150;2022-12-08T11:19:38;-19.07;72.15
72762;SHT30;60886;55.034;73.150;2022-12-08T11:22:24;-19.07;72.22
72762;SHT30;60886;55.034;73.150;2022-12-08T11:25:22;-19.08;72.21
72762;SHT30;60886;55.034;73.150;2022-12-08T11:27:51;-19.12;72.08
72762;SHT30;60886;55.034;73.150;2022-12-08T11:30:19;-19.17;72.08
72762;SHT30;60886;55.034;73.150;2022-12-08T11:32:49;-19.20;72.17
72762;SHT30;60886;55.034;73.150;2022-12-08T11:35:25;-19.25;72.13
72762;SHT30;60886;55.034;73.150;2022-12-08T11:37:55;-19.31;72.14
72762;SHT30;60886;55.034;73.150;2022-12-08T11:40:27;-19.27;72.30
72762;SHT30;60886;55.034;73.150;2022-12-08T11:45:37;-19.39;71.84
72762;SHT30;60886;55.034;73.150;2022-12-08T11:48:18;-19.48;71.63
72762;SHT30;60886;55.034;73.150;2022-12-08T11:51:07;-19.54;71.85
72762;SHT30;60886;55.034;73.150;2022-12-08T11:54:29;-19.57;71.88
72762;SHT30;60886;55.034;73.150;2022-12-08T11:57:00;-19.63;71.55
72762;SHT30;60886;55.034;73.150;2022-12-08T11:59:44;-19.72;71.67
72762;SHT30;60886;55.034;73.150;2022-12-08T12:02:20;-19.71;71.79
72762;SHT30;60886;55.034;73.150;2022-12-08T12:04:49;-19.72;71.54
72762;SHT30;60886;55.034;73.150;2022-12-08T12:07:39;-19.73;71.61
72762;SHT30;60886;55.034;73.150;2022-12-08T12:10:24;-19.75;71.69
72762;SHT30;60886;55.034;73.150;2022-12-08T12:18:55;-19.95;71.48
72762;SHT30;60886;55.034;73.150;2022-12-08T12:21:35;-19.90;71.78
72762;SHT30;60886;55.034;73.150;2022-12-08T12:29:45;-19.97;71.55
72762;SHT30;60886;55.034;73.150;2022-12-08T12:32:12;-19.99;71.80
72762;SHT30;60886;55.034;73.150;2022-12-08T12:34:59;-19.96;71.86
72762;SHT30;60886;55.034;73.150;2022-12-08T12:37:41;-19.97;72.04
72762;SHT30;60886;55.034;73.150;2022-12-08T12:40:20;-20.00;71.89
72762;SHT30;60886;55.034;73.150;2022-12-08T12:45:25;-20.02;72.14
72762;SHT30;60886;55.034;73.150;2022-12-08T12:56:02;-20.09;72.35
72762;SHT30;60886;55.034;73.150;2022-12-08T13:04:05;-20.05;72.13
72762;SHT30;60886;55.034;73.150;2022-12-08T13:06:42;-20.10;72.11
72762;SHT30;60886;55.034;73.150;2022-12-08T13:09:21;-20.18;72.14
72762;SHT30;60886;55.034;73.150;2022-12-08T13:11:54;-20.21;72.21
72762;SHT30;60886;55.034;73.150;2022-12-08T13:14:51;-20.28;71.87
72762;SHT30;60886;55.034;73.150;2022-12-08T13:17:29;-20.33;72.03
72762;SHT30;60886;55.034;73.150;2022-12-08T13:19:59;-20.36;72.08
72762;SHT30;60886;55.034;73.150;2022-12-08T13:22:49;-20.36;72.46
72762;SHT30;60886;55.034;73.150;2022-12-08T13:28:28;-20.42;72.79
72762;SHT30;60886;55.034;73.150;2022-12-08T13:31:01;-20.44;72.97
72762;SHT30;60886;55.034;73.150;2022-12-08T13:33:46;-20.42;73.28
72762;SHT30;60886;55.034;73.150;2022-12-08T13:38:44;-20.41;73.19
72762;SHT30;60886;55.034;73.150;2022-12-08T13:41:16;-20.44;73.29
72762;SHT30;60886;55.034;73.150;2022-12-08T13:44:03;-20.45;73.38
72762;SHT30;60886;55.034;73.150;2022-12-08T13:46:40;-20.41;73.69
72762;SHT30;60886;55.034;73.150;2022-12-08T13:49:08;-20.36;73.61
72762;SHT30;60886;55.034;73.150;2022-12-08T13:51:45;-20.41;73.38
72762;SHT30;60886;55.034;73.150;2022-12-08T13:56:49;-20.30;73.21
72762;SHT30;60886;55.034;73.150;2022-12-08T13:59:29;-20.28;73.15
72762;SHT30;60886;55.034;73.150;2022-12-08T14:02:15;-20.33;72.98
72762;SHT30;60886;55.034;73.150;2022-12-08T14:04:44;-20.30;72.85
72762;SHT30;60886;55.034;73.150;2022-12-08T14:07:23;-20.27;72.64
72762;SHT30;60886;55.034;73.150;2022-12-08T14:09:50;-20.24;72.60
72762;SHT30;60886;55.034;73.150;2022-12-08T14:12:23;-20.28;72.12
72762;SHT30;60886;55.034;73.150;2022-12-08T14:15:04;-20.34;72.01
72762;SHT30;60886;55.034;73.150;2022-12-08T14:17:33;-20.37;72.13
72762;SHT30;60886;55.034;73.150;2022-12-08T14:22:38;-20.31;72.59
72762;SHT30;60886;55.034;73.150;2022-12-08T14:25:08;-20.27;72.59
72762;SHT30;60886;55.034;73.150;2022-12-08T14:27:38;-20.28;72.45
72762;SHT30;60886;55.034;73.150;2022-12-08T14:32:46;-20.31;72.60
72762;SHT30;60886;55.034;73.150;2022-12-08T14:35:19;-20.37;72.71
72762;SHT30;60886;55.034;73.150;2022-12-08T14:37:49;-20.41;72.92
72762;SHT30;60886;55.034;73.150;2022-12-08T14:40:35;-20.44;73.03
72762;SHT30;60886;55.034;73.150;2022-12-08T14:51:22;-20.47;73.24
72762;SHT30;60886;55.034;73.150;2022-12-08T14:53:57;-20.42;73.07
72762;SHT30;60886;55.034;73.150;2022-12-08T14:56:33;-20.44;73.06
72762;SHT30;60886;55.034;73.150;2022-12-08T14:59:14;-20.50;73.07
72762;SHT30;60886;55.034;73.150;2022-12-08T15:01:43;-20.57;73.35
72762;SHT30;60886;55.034;73.150;2022-12-08T15:07:04;-20.57;73.34
72762;SHT30;60886;55.034;73.150;2022-12-08T15:09:36;-20.55;73.66
72762;SHT30;60886;55.034;73.150;2022-12-08T15:15:15;-20.58;73.66
72762;SHT30;60886;55.034;73.150;2022-12-08T15:23:05;-20.62;73.76
72762;SHT30;60886;55.034;73.150;2022-12-08T15:25:33;-20.67;74.01
72762;SHT30;60886;55.034;73.150;2022-12-08T15:28:01;-20.67;73.96
72762;SHT30;60886;55.034;73.150;2022-12-08T15:30:38;-20.69;74.04
72762;SHT30;60886;55.034;73.150;2022-12-08T15:33:04;-20.72;74.13
72762;SHT30;60886;55.034;73.150;2022-12-08T15:35:31;-20.69;74.33
72762;SHT30;60886;55.034;73.150;2022-12-08T15:37:58;-20.62;74.33
72762;SHT30;60886;55.034;73.150;2022-12-08T15:40:25;-20.62;74.28
72762;SHT30;60886;55.034;73.150;2022-12-08T15:42:56;-20.59;74.21
72762;SHT30;60886;55.034;73.150;2022-12-08T15:45:30;-20.55;73.97
72762;SHT30;60886;55.034;73.150;2022-12-08T15:48:01;-20.59;74.09
72762;SHT30;60886;55.034;73.150;2022-12-08T15:50:28;-20.64;74.15
72762;SHT30;60886;55.034;73.150;2022-12-08T15:53:00;-20.64;74.33
72762;SHT30;60886;55.034;73.150;2022-12-08T15:55:36;-20.58;74.54
72762;SHT30;60886;55.034;73.150;2022-12-08T15:58:03;-20.54;74.38
72762;SHT30;60886;55.034;73.150;2022-12-08T16:00:34;-20.50;74.40
72762;SHT30;60886;55.034;73.150;2022-12-08T16:03:01;-20.48;74.50
72762;SHT30;60886;55.034;73.150;2022-12-08T16:05:29;-20.45;74.56
72762;SHT30;60886;55.034;73.150;2022-12-08T16:07:56;-20.45;74.66
72762;SHT30;60886;55.034;73.150;2022-12-08T16:10:25;-20.37;74.70
72762;SHT30;60886;55.034;73.150;2022-12-08T16:12:52;-20.33;74.30
72762;SHT30;60886;55.034;73.150;2022-12-08T16:15:40;-20.33;74.29
72762;SHT30;60886;55.034;73.150;2022-12-08T16:18:15;-20.34;74.31
72762;SHT30;60886;55.034;73.150;2022-12-08T16:20:43;-20.36;74.36
72762;SHT30;60886;55.034;73.150;2022-12-08T16:23:09;-20.38;74.38
72762;SHT30;60886;55.034;73.150;2022-12-08T16:25:44;-20.33;74.64
72762;SHT30;60886;55.034;73.150;2022-12-08T16:28:11;-20.33;74.56
72762;SHT30;60886;55.034;73.150;2022-12-08T16:30:38;-20.30;74.78
72762;SHT30;60886;55.034;73.150;2022-12-08T16:33:05;-20.34;74.88
72762;SHT30;60886;55.034;73.150;2022-12-08T16:35:32;-20.30;75.03
72762;SHT30;60886;55.034;73.150;2022-12-08T16:37:58;-20.28;75.18
72762;SHT30;60886;55.034;73.150;2022-12-08T16:40:24;-20.26;75.28
72762;SHT30;60886;55.034;73.150;2022-12-08T16:42:52;-20.26;75.32
72762;SHT30;60886;55.034;73.150;2022-12-08T16:47:54;-20.23;75.32
72762;SHT30;60886;55.034;73.150;2022-12-08T16:50:33;-20.20;75.41
72762;SHT30;60886;55.034;73.150;2022-12-08T16:53:04;-20.14;75.12
72762;SHT30;60886;55.034;73.150;2022-12-08T16:55:32;-20.17;75.24
72762;SHT30;60886;55.034;73.150;2022-12-08T16:58:02;-20.12;75.00
72762;SHT30;60886;55.034;73.150;2022-12-08T17:00:30;-20.14;74.82
72762;SHT30;60886;55.034;73.150;2022-12-08T17:03:03;-20.10;75.12
72762;SHT30;60886;55.034;73.150;2022-12-08T17:05:29;-20.10;75.00
72762;SHT30;60886;55.034;73.150;2022-12-08T17:07:56;-20.14;74.82
72762;SHT30;60886;55.034;73.150;2022-12-08T17:10:27;-20.20;75.06
72762;SHT30;60886;55.034;73.150;2022-12-08T17:12:55;-20.18;75.03
72762;SHT30;60886;55.034;73.150;2022-12-08T17:15:24;-20.20;74.97
72762;SHT30;60886;55.034;73.150;2022-12-08T17:17:51;-20.17;74.86
72762;SHT30;60886;55.034;73.150;2022-12-08T17:20:24;-20.14;74.86
72762;SHT30;60886;55.034;73.150;2022-12-08T17:22:56;-20.09;74.60
72762;SHT30;60886;55.034;73.150;2022-12-08T17:25:24;-20.09;74.37
72762;SHT30;60886;55.034;73.150;2022-12-08T17:27:51;-20.13;74.50
72762;SHT30;60886;55.034;73.150;2022-12-08T17:30:18;-20.09;74.38
72762;SHT30;60886;55.034;73.150;2022-12-08T17:32:54;-20.10;74.25
72762;SHT30;60886;55.034;73.150;2022-12-08T17:35:21;-20.13;74.16
72762;SHT30;60886;55.034;73.150;2022-12-08T17:37:47;-20.16;74.22
72762;SHT30;60886;55.034;73.150;2022-12-08T17:40:13;-20.12;74.27